createdAt,value
2022-08-26T00:03:14.113Z,19.23
2022-08-26T00:08:17.943Z,16.95
2022-08-26T00:13:19.920Z,18.08
2022-08-26T00:18:22.761Z,21.30
2022-08-26T00:23:24.802Z,18.27
2022-08-26T00:28:30.546Z,17.05
2022-08-26T00:33:32.242Z,20.20
2022-08-26T00:38:35.554Z,16.92
2022-08-26T00:43:46.229Z,18.58
2022-08-26T00:48:53.989Z,20.52
2022-08-26T00:54:03.828Z,16.73
2022-08-26T00:59:11.806Z,19.90
2022-08-26T01:04:15.890Z,17.35
2022-08-26T01:09:19.303Z,20.55
2022-08-26T01:14:22.486Z,23.75
2022-08-26T01:19:31.089Z,19.08
2022-08-26T01:24:32.903Z,19.40
2022-08-26T01:29:36.122Z,18.53
2022-08-26T01:34:39.991Z,21.23
2022-08-26T01:39:43.129Z,23.50
2022-08-26T01:44:51.431Z,16.58
2022-08-26T01:49:55.806Z,16.83
2022-08-26T01:54:59.469Z,18.15
2022-08-26T02:00:06.002Z,16.20
2022-08-26T02:05:30.769Z,18.27
2022-08-26T02:10:34.149Z,19.13
2022-08-26T02:15:42.886Z,21.02
2022-08-26T02:20:44.942Z,18.83
2022-08-26T02:25:56.017Z,18.13
2022-08-26T02:30:57.707Z,16.95
2022-08-26T02:36:00.812Z,17.30
2022-08-26T02:41:02.605Z,17.23
2022-08-26T02:46:05.917Z,16.10
2022-08-26T02:51:08.060Z,15.70
2022-08-26T02:56:10.430Z,20.13
2022-08-26T03:01:29.982Z,14.07
2022-08-26T03:06:31.794Z,12.88
2022-08-26T03:16:37.386Z,15.63
2022-08-26T03:21:39.538Z,16.80
2022-08-26T03:26:52.361Z,21.10
2022-08-26T03:31:55.375Z,18.58
2022-08-26T03:36:57.081Z,16.23
2022-08-26T03:41:58.899Z,18.45
2022-08-26T03:47:00.706Z,17.70
2022-08-26T03:52:04.448Z,20.95
2022-08-26T03:57:06.162Z,22.58
2022-08-26T04:02:11.361Z,17.98
2022-08-26T04:07:13.546Z,25.30
2022-08-26T04:12:17.093Z,17.60
2022-08-26T04:22:26.729Z,20.65
2022-08-26T04:27:31.182Z,19.27
2022-08-26T04:32:32.916Z,19.23
2022-08-26T04:37:35.693Z,16.45
2022-08-26T04:42:37.426Z,21.60
2022-08-26T04:47:39.123Z,17.85
2022-08-26T04:52:40.797Z,14.73
2022-08-26T04:57:43.082Z,11.63
2022-08-26T05:02:46.115Z,18.02
2022-08-26T05:07:47.876Z,20.52
2022-08-26T05:12:51.583Z,16.13
2022-08-26T05:18:21.286Z,18.63
2022-08-26T05:23:25.242Z,15.55
2022-08-26T05:28:28.930Z,15.10
2022-08-26T05:33:30.574Z,15.13
2022-08-26T05:38:32.220Z,15.68
2022-08-26T05:43:34.316Z,18.52
2022-08-26T05:48:37.893Z,21.38
2022-08-26T05:53:43.875Z,19.08
2022-08-26T05:58:58.368Z,23.38
2022-08-26T06:04:02.027Z,15.55
2022-08-26T06:09:06.358Z,23.10
2022-08-26T06:14:11.673Z,19.17
2022-08-26T06:19:15.525Z,19.17
2022-08-26T06:24:35.705Z,19.65
2022-08-26T06:29:38.449Z,22.75
2022-08-26T06:34:40.314Z,22.88
2022-08-26T06:39:41.970Z,21.17
2022-08-26T06:44:44.585Z,17.93
2022-08-26T06:49:46.538Z,21.33
2022-08-26T06:54:48.444Z,21.35
2022-08-26T06:59:52.757Z,23.58
2022-08-26T07:04:54.582Z,26.73
2022-08-26T07:09:58.722Z,26.88
2022-08-26T07:15:00.551Z,25.80
2022-08-26T07:20:03.416Z,29.67
2022-08-26T07:25:08.630Z,28.15
2022-08-26T07:30:11.005Z,24.27
2022-08-26T07:35:16.980Z,26.58
2022-08-26T07:40:19.098Z,29.27
2022-08-26T07:45:22.130Z,23.35
2022-08-26T07:50:49.100Z,25.67
2022-08-26T07:55:46.625Z,23.70
2022-08-26T08:00:48.689Z,22.23
2022-08-26T08:05:50.640Z,20.45
2022-08-26T08:10:55.850Z,22.33
2022-08-26T08:15:57.561Z,17.17
2022-08-26T08:21:21.378Z,20.70
2022-08-26T08:26:26.081Z,20.02
2022-08-26T08:31:56.953Z,20.27
2022-08-26T08:36:53.453Z,17.48
2022-08-26T08:42:05.932Z,15.15
2022-08-26T08:47:30.938Z,16.35
2022-08-26T08:52:35.539Z,17.08
2022-08-26T08:57:43.749Z,17.58
2022-08-26T09:02:59.920Z,16.73
2022-08-26T09:08:06.631Z,17.35
2022-08-26T09:13:13.716Z,17.85
2022-08-26T09:18:30.601Z,15.52
2022-08-26T09:23:35.932Z,19.98
2022-08-26T09:28:42.518Z,15.30
2022-08-26T09:33:44.407Z,16.23
2022-08-26T09:38:46.152Z,19.15
2022-08-26T09:44:18.422Z,16.85
2022-08-26T09:49:25.393Z,16.50
2022-08-26T09:54:30.425Z,16.45
2022-08-26T09:59:34.132Z,17.42
2022-08-26T10:04:37.194Z,14.30
2022-08-26T10:09:43.067Z,17.05
2022-08-26T10:14:59.730Z,23.58
2022-08-26T10:20:15.813Z,19.05
2022-08-26T10:25:33.244Z,20.92
2022-08-26T10:30:42.961Z,23.52
2022-08-26T10:35:54.907Z,19.92
2022-08-26T10:41:20.661Z,21.73
2022-08-26T10:46:27.367Z,20.98
2022-08-26T10:51:36.341Z,20.85
2022-08-26T10:56:51.005Z,27.05
2022-08-26T11:02:07.433Z,49.22
2022-08-26T11:07:34.118Z,34.05
2022-08-26T11:12:36.090Z,29.65
2022-08-26T11:24:52.383Z,26.83
2022-08-26T11:30:08.242Z,33.97
2022-08-26T11:35:19.235Z,39.67
2022-08-26T11:40:27.808Z,34.42
2022-08-26T11:46:00.135Z,33.13
2022-08-26T11:51:06.601Z,33.20
2022-08-26T11:56:33.158Z,28.58
2022-08-26T12:01:43.854Z,25.85
2022-08-26T12:06:50.785Z,25.90
2022-08-26T12:12:25.021Z,24.65
2022-08-26T12:17:27.928Z,23.33
2022-08-26T12:22:34.594Z,23.65
2022-08-26T12:27:45.442Z,22.45
2022-08-26T12:32:57.593Z,21.40
2022-08-26T12:38:01.423Z,23.15
2022-08-26T12:43:06.433Z,23.77
2022-08-26T12:48:44.479Z,22.65
2022-08-26T12:53:46.477Z,22.88
2022-08-26T13:04:06.554Z,21.83
2022-08-26T13:09:08.477Z,20.88
2022-08-26T13:14:15.538Z,19.67
2022-08-26T13:19:29.515Z,26.15
2022-08-26T13:24:35.938Z,24.42
2022-08-26T13:29:38.246Z,21.65
2022-08-26T13:34:40.495Z,19.88
2022-08-26T13:39:43.809Z,17.90
2022-08-26T13:44:47.801Z,15.07
2022-08-26T13:49:49.504Z,25.13
2022-08-26T13:54:51.811Z,18.95
2022-08-26T13:59:57.093Z,20.80
2022-08-26T14:04:59.183Z,16.92
2022-08-26T14:10:01.586Z,16.65
2022-08-26T14:15:03.737Z,17.40
2022-08-26T14:20:07.907Z,20.95
2022-08-26T14:25:12.158Z,15.57
2022-08-26T14:30:14.691Z,15.93
2022-08-26T14:35:22.900Z,19.02
2022-08-26T14:40:29.812Z,17.48
2022-08-26T14:45:34.757Z,13.38
2022-08-26T14:50:36.535Z,15.15
2022-08-26T14:55:41.108Z,14.40
2022-08-26T15:00:43.404Z,17.13
2022-08-26T15:05:48.154Z,13.63
2022-08-26T15:10:50.734Z,15.07
2022-08-26T15:15:52.545Z,19.88
2022-08-26T15:20:54.498Z,18.45
2022-08-26T15:25:56.535Z,21.85
2022-08-26T15:36:01.827Z,21.57
2022-08-26T15:41:05.074Z,25.48
2022-08-26T15:46:10.886Z,21.42
2022-08-26T15:51:31.817Z,24.45
2022-08-26T15:56:36.234Z,24.38
2022-08-26T16:01:38.661Z,18.98
2022-08-26T16:06:42.402Z,21.10
2022-08-26T16:11:44.126Z,22.10
2022-08-26T16:16:45.769Z,22.45
2022-08-26T16:21:48.042Z,24.52
2022-08-26T16:31:53.270Z,22.63
2022-08-26T16:36:54.991Z,21.80
2022-08-26T16:41:57.137Z,21.30
2022-08-26T16:46:58.961Z,26.77
2022-08-26T16:52:04.481Z,20.55
2022-08-26T16:57:08.469Z,24.20
2022-08-26T17:02:11.795Z,34.05
2022-08-26T17:07:13.627Z,24.50
2022-08-26T17:12:15.494Z,25.48
2022-08-26T17:17:17.335Z,25.23
2022-08-26T17:22:19.703Z,18.75
2022-08-26T17:32:23.583Z,23.77
2022-08-26T17:37:25.848Z,25.77
2022-08-26T17:42:31.533Z,22.08
2022-08-26T17:47:34.375Z,23.50
2022-08-26T18:02:44.702Z,12.63
2022-08-26T18:07:47.155Z,12.98
2022-08-26T18:17:50.817Z,12.73
2022-08-26T18:22:53.995Z,8.77
2022-08-26T18:27:55.683Z,9.18
2022-08-26T18:32:57.898Z,8.85
2022-08-26T18:38:11.301Z,7.37
2022-08-26T18:43:13.623Z,7.57
2022-08-26T18:48:16.664Z,9.43
2022-08-26T18:53:18.332Z,10.35
2022-08-26T18:58:20.176Z,12.30
2022-08-26T19:03:22.068Z,8.90
2022-08-26T19:08:23.857Z,9.07
2022-08-26T19:13:26.166Z,9.40
2022-08-26T19:18:27.961Z,12.50
2022-08-26T19:23:31.905Z,10.67
2022-08-26T19:28:34.558Z,13.25
2022-08-26T19:33:41.866Z,10.98
2022-08-26T19:38:45.009Z,10.35
2022-08-26T19:43:46.937Z,9.82
2022-08-26T19:48:54.064Z,7.88
2022-08-26T19:53:59.699Z,8.32
2022-08-26T19:59:01.678Z,11.52
2022-08-26T20:04:04.149Z,11.43
2022-08-26T20:14:07.818Z,6.45
2022-08-26T20:19:28.283Z,11.97
2022-08-26T20:24:31.451Z,9.00
2022-08-26T20:29:34.783Z,7.57
2022-08-26T20:34:36.937Z,11.43
2022-08-26T20:39:38.706Z,8.35
2022-08-26T20:44:43.217Z,7.00
2022-08-26T20:49:56.978Z,9.68
2022-08-26T20:54:58.660Z,6.80
2022-08-26T21:00:00.961Z,9.10
2022-08-26T21:05:02.854Z,9.68
2022-08-26T21:10:05.002Z,8.38
2022-08-26T21:15:07.425Z,11.25
2022-08-26T21:20:09.566Z,7.63
2022-08-26T21:25:11.658Z,7.88
2022-08-26T21:30:15.541Z,6.73
2022-08-26T21:35:18.402Z,12.35
2022-08-26T21:40:20.175Z,9.33
2022-08-26T21:45:21.926Z,12.13
2022-08-26T21:50:23.842Z,9.30
2022-08-26T21:55:25.831Z,9.00
2022-08-26T22:00:27.909Z,13.37
2022-08-26T22:05:29.997Z,8.25
2022-08-26T22:10:31.793Z,6.68
2022-08-26T22:15:35.437Z,9.30
2022-08-26T22:20:37.186Z,8.75
2022-08-26T22:25:39.013Z,7.90
2022-08-26T22:30:45.582Z,9.57
2022-08-26T22:35:50.548Z,7.63
2022-08-26T22:40:57.464Z,8.57
2022-08-26T22:45:59.449Z,9.80
2022-08-26T22:51:01.208Z,9.80
2022-08-26T22:56:04.056Z,8.03
2022-08-26T23:01:07.089Z,14.18
2022-08-26T23:06:10.347Z,10.05
2022-08-26T23:11:13.773Z,8.88
2022-08-26T23:16:15.579Z,11.05
2022-08-26T23:21:17.591Z,9.05
2022-08-26T23:26:19.860Z,9.80
2022-08-26T23:31:21.610Z,11.15
2022-08-26T23:36:23.652Z,8.57
2022-08-26T23:41:25.867Z,11.63
2022-08-26T23:46:27.723Z,9.87
2022-08-26T23:52:05.036Z,10.45
2022-08-26T23:57:07.305Z,12.13
